sensor_id;sensor_type;location;lat;lon;timestamp;temperature;humidity
25280;DHT22;13225;47.804;12.116;2023-04-23T00:01:27;11.20;99.90
25280;DHT22;13225;47.804;12.116;2023-04-23T00:03:56;11.20;99.90
25280;DHT22;13225;47.804;12.116;2023-04-23T00:06:23;11.20;99.90
25280;DHT22;13225;47.804;12.116;2023-04-23T00:08:52;11.30;99.90
25280;DHT22;13225;47.804;12.116;2023-04-23T00:11:18;11.30;99.90
25280;DHT22;13225;47.804;12.116;2023-04-23T00:13:44;11.30;99.90
25280;DHT22;13225;47.804;12.116;2023-04-23T00:16:12;11.30;99.90
25280;DHT22;13225;47.804;12.116;2023-04-23T00:18:38;11.30;99.90
25280;DHT22;13225;47.804;12.116;2023-04-23T00:21:03;11.30;99.90
25280;DHT22;13225;47.804;12.116;2023-04-23T00:23:29;11.30;99.90
25280;DHT22;13225;47.804;12.116;2023-04-23T00:25:55;11.30;99.90
25280;DHT22;13225;47.804;12.116;2023-04-23T00:28:20;11.40;99.90
25280;DHT22;13225;47.804;12.116;2023-04-23T00:30:46;11.40;99.90
25280;DHT22;13225;47.804;12.116;2023-04-23T00:33:11;11.40;99.90
25280;DHT22;13225;47.804;12.116;2023-04-23T00:35:37;11.40;99.90
25280;DHT22;13225;47.804;12.116;2023-04-23T00:38:03;11.30;99.90
25280;DHT22;13225;47.804;12.116;2023-04-23T00:40:29;11.30;99.90
25280;DHT22;13225;47.804;12.116;2023-04-23T00:42:55;11.30;99.90
25280;DHT22;13225;47.804;12.116;2023-04-23T00:45:23;11.30;99.90
25280;DHT22;13225;47.804;12.116;2023-04-23T00:47:48;11.30;99.90
25280;DHT22;13225;47.804;12.116;2023-04-23T00:50:14;11.30;99.90
25280;DHT22;13225;47.804;12.116;2023-04-23T00:52:40;11.30;99.90
25280;DHT22;13225;47.804;12.116;2023-04-23T00:55:06;11.30;99.90
25280;DHT22;13225;47.804;12.116;2023-04-23T00:57:34;11.40;99.90
25280;DHT22;13225;47.804;12.116;2023-04-23T01:00:00;11.50;99.90
25280;DHT22;13225;47.804;12.116;2023-04-23T01:02:30;11.50;99.90
25280;DHT22;13225;47.804;12.116;2023-04-23T01:04:57;11.50;99.90
25280;DHT22;13225;47.804;12.116;2023-04-23T01:07:23;11.50;99.90
25280;DHT22;13225;47.804;12.116;2023-04-23T01:09:49;11.50;99.90
25280;DHT22;13225;47.804;12.116;2023-04-23T01:12:16;11.50;99.90
25280;DHT22;13225;47.804;12.116;2023-04-23T01:14:42;11.60;99.90
25280;DHT22;13225;47.804;12.116;2023-04-23T01:17:08;11.60;99.90
25280;DHT22;13225;47.804;12.116;2023-04-23T01:19:34;11.50;99.90
25280;DHT22;13225;47.804;12.116;2023-04-23T01:22:01;11.50;99.90
25280;DHT22;13225;47.804;12.116;2023-04-23T01:24:28;11.50;99.90
25280;DHT22;13225;47.804;12.116;2023-04-23T01:26:55;11.50;99.90
25280;DHT22;13225;47.804;12.116;2023-04-23T01:29:23;11.50;99.90
25280;DHT22;13225;47.804;12.116;2023-04-23T01:31:49;11.50;99.90
25280;DHT22;13225;47.804;12.116;2023-04-23T01:34:16;11.40;99.90
25280;DHT22;13225;47.804;12.116;2023-04-23T01:36:42;11.50;99.90
25280;DHT22;13225;47.804;12.116;2023-04-23T01:39:08;11.40;99.90
25280;DHT22;13225;47.804;12.116;2023-04-23T01:41:34;11.50;99.90
25280;DHT22;13225;47.804;12.116;2023-04-23T01:44:00;11.50;99.90
25280;DHT22;13225;47.804;12.116;2023-04-23T01:46:26;11.60;99.90
25280;DHT22;13225;47.804;12.116;2023-04-23T01:48:52;11.60;99.90
25280;DHT22;13225;47.804;12.116;2023-04-23T01:51:18;11.50;99.90
25280;DHT22;13225;47.804;12.116;2023-04-23T01:53:43;11.50;99.90
25280;DHT22;13225;47.804;12.116;2023-04-23T01:56:09;11.50;99.90
25280;DHT22;13225;47.804;12.116;2023-04-23T01:58:35;11.50;99.90
25280;DHT22;13225;47.804;12.116;2023-04-23T02:01:01;11.50;99.90
25280;DHT22;13225;47.804;12.116;2023-04-23T02:03:30;11.50;99.90
25280;DHT22;13225;47.804;12.116;2023-04-23T02:05:58;11.50;99.90
25280;DHT22;13225;47.804;12.116;2023-04-23T02:08:25;11.50;99.90
25280;DHT22;13225;47.804;12.116;2023-04-23T02:10:51;11.60;99.90
25280;DHT22;13225;47.804;12.116;2023-04-23T02:13:16;11.60;99.90
25280;DHT22;13225;47.804;12.116;2023-04-23T02:15:42;11.60;99.90
25280;DHT22;13225;47.804;12.116;2023-04-23T02:18:08;11.60;99.90
25280;DHT22;13225;47.804;12.116;2023-04-23T02:20:35;11.60;99.90
25280;DHT22;13225;47.804;12.116;2023-04-23T02:23:05;11.50;99.90
25280;DHT22;13225;47.804;12.116;2023-04-23T02:25:31;11.60;99.90
25280;DHT22;13225;47.804;12.116;2023-04-23T02:27:56;11.60;99.90
25280;DHT22;13225;47.804;12.116;2023-04-23T02:30:24;11.60;99.90
25280;DHT22;13225;47.804;12.116;2023-04-23T02:32:50;11.60;99.90
25280;DHT22;13225;47.804;12.116;2023-04-23T02:35:15;11.60;99.90
25280;DHT22;13225;47.804;12.116;2023-04-23T02:37:41;11.60;99.90
25280;DHT22;13225;47.804;12.116;2023-04-23T02:40:07;11.70;99.90
25280;DHT22;13225;47.804;12.116;2023-04-23T02:42:33;11.70;99.90
25280;DHT22;13225;47.804;12.116;2023-04-23T02:44:59;11.60;99.90
25280;DHT22;13225;47.804;12.116;2023-04-23T02:47:25;11.60;99.90
25280;DHT22;13225;47.804;12.116;2023-04-23T02:49:50;11.60;99.90
25280;DHT22;13225;47.804;12.116;2023-04-23T02:52:16;11.50;99.90
25280;DHT22;13225;47.804;12.116;2023-04-23T02:54:42;11.40;99.90
25280;DHT22;13225;47.804;12.116;2023-04-23T02:57:07;11.40;99.90
25280;DHT22;13225;47.804;12.116;2023-04-23T02:59:33;11.30;99.90
25280;DHT22;13225;47.804;12.116;2023-04-23T03:01:59;11.20;99.90
25280;DHT22;13225;47.804;12.116;2023-04-23T03:04:24;11.10;99.90
25280;DHT22;13225;47.804;12.116;2023-04-23T03:06:50;11.00;99.90
25280;DHT22;13225;47.804;12.116;2023-04-23T03:09:15;11.00;99.90
25280;DHT22;13225;47.804;12.116;2023-04-23T03:11:41;10.90;99.90
25280;DHT22;13225;47.804;12.116;2023-04-23T03:14:06;10.90;99.90
25280;DHT22;13225;47.804;12.116;2023-04-23T03:16:32;10.90;99.90
25280;DHT22;13225;47.804;12.116;2023-04-23T03:18:58;10.90;99.90
25280;DHT22;13225;47.804;12.116;2023-04-23T03:21:24;10.90;99.90
25280;DHT22;13225;47.804;12.116;2023-04-23T03:23:49;10.90;99.90
25280;DHT22;13225;47.804;12.116;2023-04-23T03:26:15;11.00;99.90
25280;DHT22;13225;47.804;12.116;2023-04-23T03:28:40;11.00;99.90
25280;DHT22;13225;47.804;12.116;2023-04-23T03:31:06;11.10;99.90
25280;DHT22;13225;47.804;12.116;2023-04-23T03:33:31;11.10;99.90
25280;DHT22;13225;47.804;12.116;2023-04-23T03:35:57;11.20;99.90
25280;DHT22;13225;47.804;12.116;2023-04-23T03:38:23;11.20;99.90
25280;DHT22;13225;47.804;12.116;2023-04-23T03:40:48;11.30;99.90
25280;DHT22;13225;47.804;12.116;2023-04-23T03:43:14;11.30;99.90
25280;DHT22;13225;47.804;12.116;2023-04-23T03:45:39;11.30;99.90
25280;DHT22;13225;47.804;12.116;2023-04-23T03:48:05;11.20;99.90
25280;DHT22;13225;47.804;12.116;2023-04-23T03:50:31;11.20;99.90
25280;DHT22;13225;47.804;12.116;2023-04-23T03:53:00;11.20;99.90
25280;DHT22;13225;47.804;12.116;2023-04-23T03:55:26;11.30;99.90
25280;DHT22;13225;47.804;12.116;2023-04-23T03:57:51;11.30;99.90
25280;DHT22;13225;47.804;12.116;2023-04-23T04:00:17;11.30;99.90
25280;DHT22;13225;47.804;12.116;2023-04-23T04:02:42;11.10;99.90
25280;DHT22;13225;47.804;12.116;2023-04-23T04:05:08;11.10;99.90
25280;DHT22;13225;47.804;12.116;2023-04-23T04:07:35;11.10;99.90
25280;DHT22;13225;47.804;12.116;2023-04-23T04:10:02;11.00;99.90
25280;DHT22;13225;47.804;12.116;2023-04-23T04:12:28;11.00;99.90
25280;DHT22;13225;47.804;12.116;2023-04-23T04:14:53;11.00;99.90
25280;DHT22;13225;47.804;12.116;2023-04-23T04:17:19;11.00;99.90
25280;DHT22;13225;47.804;12.116;2023-04-23T04:19:45;11.10;99.90
25280;DHT22;13225;47.804;12.116;2023-04-23T04:22:10;11.10;99.90
25280;DHT22;13225;47.804;12.116;2023-04-23T04:24:36;11.20;99.90
25280;DHT22;13225;47.804;12.116;2023-04-23T04:27:02;11.20;99.90
25280;DHT22;13225;47.804;12.116;2023-04-23T04:29:27;11.30;99.90
25280;DHT22;13225;47.804;12.116;2023-04-23T04:31:53;11.30;99.90
25280;DHT22;13225;47.804;12.116;2023-04-23T04:34:19;11.30;99.90
25280;DHT22;13225;47.804;12.116;2023-04-23T04:36:45;11.30;99.90
25280;DHT22;13225;47.804;12.116;2023-04-23T04:39:11;11.20;99.90
25280;DHT22;13225;47.804;12.116;2023-04-23T04:41:39;11.20;99.90
25280;DHT22;13225;47.804;12.116;2023-04-23T04:44:06;11.20;99.90
25280;DHT22;13225;47.804;12.116;2023-04-23T04:46:34;11.20;99.90
25280;DHT22;13225;47.804;12.116;2023-04-23T04:49:11;11.20;99.90
25280;DHT22;13225;47.804;12.116;2023-04-23T04:51:37;11.30;99.90
25280;DHT22;13225;47.804;12.116;2023-04-23T04:54:03;11.30;99.90
25280;DHT22;13225;47.804;12.116;2023-04-23T04:56:29;11.30;99.90
25280;DHT22;13225;47.804;12.116;2023-04-23T04:58:55;11.30;99.90
25280;DHT22;13225;47.804;12.116;2023-04-23T05:01:21;11.40;99.90
25280;DHT22;13225;47.804;12.116;2023-04-23T05:03:51;11.40;99.90
25280;DHT22;13225;47.804;12.116;2023-04-23T05:06:17;11.40;99.90
25280;DHT22;13225;47.804;12.116;2023-04-23T05:08:43;11.40;99.90
25280;DHT22;13225;47.804;12.116;2023-04-23T05:11:16;11.40;99.90
25280;DHT22;13225;47.804;12.116;2023-04-23T05:13:43;11.30;99.90
25280;DHT22;13225;47.804;12.116;2023-04-23T05:16:09;11.40;99.90
25280;DHT22;13225;47.804;12.116;2023-04-23T05:18:39;11.40;99.90
25280;DHT22;13225;47.804;12.116;2023-04-23T05:21:05;11.40;99.90
25280;DHT22;13225;47.804;12.116;2023-04-23T05:23:32;11.30;99.90
25280;DHT22;13225;47.804;12.116;2023-04-23T05:25:57;11.40;99.90
25280;DHT22;13225;47.804;12.116;2023-04-23T05:28:23;11.40;99.90
25280;DHT22;13225;47.804;12.116;2023-04-23T05:30:49;11.40;99.90
25280;DHT22;13225;47.804;12.116;2023-04-23T05:33:16;11.40;99.90
25280;DHT22;13225;47.804;12.116;2023-04-23T05:35:41;11.40;99.90
25280;DHT22;13225;47.804;12.116;2023-04-23T05:38:07;11.40;99.90
25280;DHT22;13225;47.804;12.116;2023-04-23T05:40:33;11.40;99.90
25280;DHT22;13225;47.804;12.116;2023-04-23T05:42:59;11.50;99.90
25280;DHT22;13225;47.804;12.116;2023-04-23T05:45:24;11.50;99.90
25280;DHT22;13225;47.804;12.116;2023-04-23T05:47:50;11.50;99.90
25280;DHT22;13225;47.804;12.116;2023-04-23T05:50:17;11.50;99.90
25280;DHT22;13225;47.804;12.116;2023-04-23T05:52:42;11.60;99.90
25280;DHT22;13225;47.804;12.116;2023-04-23T05:55:09;11.60;99.90
25280;DHT22;13225;47.804;12.116;2023-04-23T05:57:36;11.60;99.90
25280;DHT22;13225;47.804;12.116;2023-04-23T06:00:03;11.70;99.90
25280;DHT22;13225;47.804;12.116;2023-04-23T06:02:30;11.70;99.90
25280;DHT22;13225;47.804;12.116;2023-04-23T06:04:58;11.80;99.90
25280;DHT22;13225;47.804;12.116;2023-04-23T06:07:23;11.80;99.90
25280;DHT22;13225;47.804;12.116;2023-04-23T06:09:49;11.90;99.90
25280;DHT22;13225;47.804;12.116;2023-04-23T06:12:15;11.90;99.90
25280;DHT22;13225;47.804;12.116;2023-04-23T06:14:40;12.00;99.90
25280;DHT22;13225;47.804;12.116;2023-04-23T06:17:06;12.10;99.90
25280;DHT22;13225;47.804;12.116;2023-04-23T06:19:32;12.20;99.90
25280;DHT22;13225;47.804;12.116;2023-04-23T06:21:57;12.20;99.90
25280;DHT22;13225;47.804;12.116;2023-04-23T06:24:23;12.40;99.90
25280;DHT22;13225;47.804;12.116;2023-04-23T06:26:48;12.50;99.90
25280;DHT22;13225;47.804;12.116;2023-04-23T06:29:14;12.60;99.90
25280;DHT22;13225;47.804;12.116;2023-04-23T06:31:40;12.40;99.90
25280;DHT22;13225;47.804;12.116;2023-04-23T06:34:06;12.30;99.90
25280;DHT22;13225;47.804;12.116;2023-04-23T06:36:32;12.50;99.90
25280;DHT22;13225;47.804;12.116;2023-04-23T06:38:57;12.40;99.90
25280;DHT22;13225;47.804;12.116;2023-04-23T06:41:23;12.40;99.90
25280;DHT22;13225;47.804;12.116;2023-04-23T06:43:49;12.60;99.90
25280;DHT22;13225;47.804;12.116;2023-04-23T06:46:14;12.70;99.90
25280;DHT22;13225;47.804;12.116;2023-04-23T06:48:40;12.80;99.90
25280;DHT22;13225;47.804;12.116;2023-04-23T06:51:05;12.90;99.90
25280;DHT22;13225;47.804;12.116;2023-04-23T06:53:32;12.90;99.90
25280;DHT22;13225;47.804;12.116;2023-04-23T06:55:57;13.00;99.90
25280;DHT22;13225;47.804;12.116;2023-04-23T06:58:23;13.10;99.90
25280;DHT22;13225;47.804;12.116;2023-04-23T07:00:59;13.10;99.90
25280;DHT22;13225;47.804;12.116;2023-04-23T07:03:28;13.20;99.90
25280;DHT22;13225;47.804;12.116;2023-04-23T07:05:54;13.20;99.90
25280;DHT22;13225;47.804;12.116;2023-04-23T07:08:19;13.20;99.90
25280;DHT22;13225;47.804;12.116;2023-04-23T07:10:48;13.20;99.90
25280;DHT22;13225;47.804;12.116;2023-04-23T07:13:14;13.20;99.90
25280;DHT22;13225;47.804;12.116;2023-04-23T07:15:39;13.30;99.90
25280;DHT22;13225;47.804;12.116;2023-04-23T07:18:06;13.20;99.90
25280;DHT22;13225;47.804;12.116;2023-04-23T07:20:32;13.20;99.90
25280;DHT22;13225;47.804;12.116;2023-04-23T07:22:58;13.10;99.90
25280;DHT22;13225;47.804;12.116;2023-04-23T07:25:24;13.20;99.90
25280;DHT22;13225;47.804;12.116;2023-04-23T07:27:51;13.20;99.90
25280;DHT22;13225;47.804;12.116;2023-04-23T07:30:17;13.30;99.90
25280;DHT22;13225;47.804;12.116;2023-04-23T07:32:43;13.40;99.90
25280;DHT22;13225;47.804;12.116;2023-04-23T07:35:09;13.40;99.90
25280;DHT22;13225;47.804;12.116;2023-04-23T07:37:36;13.40;99.90
25280;DHT22;13225;47.804;12.116;2023-04-23T07:40:02;13.40;99.90
25280;DHT22;13225;47.804;12.116;2023-04-23T07:42:30;13.40;99.90
25280;DHT22;13225;47.804;12.116;2023-04-23T07:44:55;13.40;99.90
25280;DHT22;13225;47.804;12.116;2023-04-23T07:47:21;13.50;99.90
25280;DHT22;13225;47.804;12.116;2023-04-23T07:49:47;13.60;99.90
25280;DHT22;13225;47.804;12.116;2023-04-23T07:52:12;13.70;99.90
25280;DHT22;13225;47.804;12.116;2023-04-23T07:54:39;13.60;99.90
25280;DHT22;13225;47.804;12.116;2023-04-23T07:57:05;13.70;99.90
25280;DHT22;13225;47.804;12.116;2023-04-23T07:59:31;13.90;99.90
25280;DHT22;13225;47.804;12.116;2023-04-23T08:01:56;14.00;99.90
25280;DHT22;13225;47.804;12.116;2023-04-23T08:04:22;14.10;99.90
25280;DHT22;13225;47.804;12.116;2023-04-23T08:06:47;14.40;99.90
25280;DHT22;13225;47.804;12.116;2023-04-23T08:09:14;14.70;99.90
25280;DHT22;13225;47.804;12.116;2023-04-23T08:11:40;14.90;99.90
25280;DHT22;13225;47.804;12.116;2023-04-23T08:14:06;15.00;99.90
25280;DHT22;13225;47.804;12.116;2023-04-23T08:16:31;14.90;99.90
25280;DHT22;13225;47.804;12.116;2023-04-23T08:18:57;14.80;99.90
25280;DHT22;13225;47.804;12.116;2023-04-23T08:21:23;14.60;99.90
25280;DHT22;13225;47.804;12.116;2023-04-23T08:23:49;14.40;99.90
25280;DHT22;13225;47.804;12.116;2023-04-23T08:26:15;14.10;99.90
25280;DHT22;13225;47.804;12.116;2023-04-23T08:28:41;14.10;99.90
25280;DHT22;13225;47.804;12.116;2023-04-23T08:31:06;14.10;99.90
25280;DHT22;13225;47.804;12.116;2023-04-23T08:33:32;14.00;99.90
25280;DHT22;13225;47.804;12.116;2023-04-23T08:35:58;14.10;99.90
25280;DHT22;13225;47.804;12.116;2023-04-23T08:38:23;14.20;99.90
25280;DHT22;13225;47.804;12.116;2023-04-23T08:40:51;14.30;99.90
25280;DHT22;13225;47.804;12.116;2023-04-23T08:43:25;14.20;99.90
25280;DHT22;13225;47.804;12.116;2023-04-23T08:45:53;14.20;99.90
25280;DHT22;13225;47.804;12.116;2023-04-23T08:48:19;14.20;99.90
25280;DHT22;13225;47.804;12.116;2023-04-23T08:50:45;13.90;99.90
25280;DHT22;13225;47.804;12.116;2023-04-23T08:53:17;13.80;99.90
25280;DHT22;13225;47.804;12.116;2023-04-23T08:55:44;14.20;99.90
25280;DHT22;13225;47.804;12.116;2023-04-23T08:58:10;14.50;99.90
25280;DHT22;13225;47.804;12.116;2023-04-23T09:00:36;14.80;99.90
25280;DHT22;13225;47.804;12.116;2023-04-23T09:03:02;14.60;99.90
25280;DHT22;13225;47.804;12.116;2023-04-23T09:05:29;14.80;99.90
25280;DHT22;13225;47.804;12.116;2023-04-23T09:07:56;14.90;99.90
25280;DHT22;13225;47.804;12.116;2023-04-23T09:10:24;14.60;99.90
25280;DHT22;13225;47.804;12.116;2023-04-23T09:12:49;14.30;99.90
25280;DHT22;13225;47.804;12.116;2023-04-23T09:15:15;14.20;99.90
25280;DHT22;13225;47.804;12.116;2023-04-23T09:17:44;14.20;99.90
25280;DHT22;13225;47.804;12.116;2023-04-23T09:20:11;14.10;99.90
25280;DHT22;13225;47.804;12.116;2023-04-23T09:22:57;14.30;99.90
25280;DHT22;13225;47.804;12.116;2023-04-23T09:25:23;14.80;99.90
25280;DHT22;13225;47.804;12.116;2023-04-23T09:27:50;15.10;99.90
25280;DHT22;13225;47.804;12.116;2023-04-23T09:30:17;15.20;99.90
25280;DHT22;13225;47.804;12.116;2023-04-23T09:32:44;15.20;99.90
25280;DHT22;13225;47.804;12.116;2023-04-23T09:35:14;15.20;99.90
25280;DHT22;13225;47.804;12.116;2023-04-23T09:37:41;15.30;99.90
25280;DHT22;13225;47.804;12.116;2023-04-23T09:40:07;15.10;99.90
25280;DHT22;13225;47.804;12.116;2023-04-23T09:42:34;15.10;99.90
25280;DHT22;13225;47.804;12.116;2023-04-23T09:45:03;15.00;99.90
25280;DHT22;13225;47.804;12.116;2023-04-23T09:47:41;15.00;99.90
25280;DHT22;13225;47.804;12.116;2023-04-23T09:50:07;15.00;99.90
25280;DHT22;13225;47.804;12.116;2023-04-23T09:52:38;14.80;99.90
25280;DHT22;13225;47.804;12.116;2023-04-23T09:55:04;14.80;99.90
25280;DHT22;13225;47.804;12.116;2023-04-23T09:57:37;15.10;99.90
25280;DHT22;13225;47.804;12.116;2023-04-23T10:00:12;15.00;99.90
25280;DHT22;13225;47.804;12.116;2023-04-23T10:02:38;15.00;99.90
25280;DHT22;13225;47.804;12.116;2023-04-23T10:07:43;14.40;99.90
25280;DHT22;13225;47.804;12.116;2023-04-23T10:10:10;14.30;99.90
25280;DHT22;13225;47.804;12.116;2023-04-23T10:12:35;14.40;99.90
25280;DHT22;13225;47.804;12.116;2023-04-23T10:15:03;14.60;99.90
25280;DHT22;13225;47.804;12.116;2023-04-23T10:17:30;14.80;99.90
25280;DHT22;13225;47.804;12.116;2023-04-23T10:19:57;15.10;99.90
25280;DHT22;13225;47.804;12.116;2023-04-23T10:22:28;15.70;99.90
25280;DHT22;13225;47.804;12.116;2023-04-23T10:24:56;16.30;99.90
25280;DHT22;13225;47.804;12.116;2023-04-23T10:27:26;16.40;99.90
25280;DHT22;13225;47.804;12.116;2023-04-23T10:29:52;16.80;99.90
25280;DHT22;13225;47.804;12.116;2023-04-23T10:32:19;17.10;99.90
25280;DHT22;13225;47.804;12.116;2023-04-23T10:34:45;17.20;99.90
25280;DHT22;13225;47.804;12.116;2023-04-23T10:37:12;17.70;99.90
25280;DHT22;13225;47.804;12.116;2023-04-23T10:39:43;17.70;99.90
25280;DHT22;13225;47.804;12.116;2023-04-23T10:42:09;17.50;99.90
25280;DHT22;13225;47.804;12.116;2023-04-23T10:44:38;17.80;99.90
25280;DHT22;13225;47.804;12.116;2023-04-23T10:47:05;18.00;99.90
25280;DHT22;13225;47.804;12.116;2023-04-23T10:49:32;17.80;99.90
25280;DHT22;13225;47.804;12.116;2023-04-23T10:52:16;17.70;99.90
25280;DHT22;13225;47.804;12.116;2023-04-23T10:54:47;17.60;99.90
25280;DHT22;13225;47.804;12.116;2023-04-23T10:57:13;17.60;99.90
25280;DHT22;13225;47.804;12.116;2023-04-23T10:59:42;17.30;99.90
25280;DHT22;13225;47.804;12.116;2023-04-23T11:02:16;17.20;99.90
25280;DHT22;13225;47.804;12.116;2023-04-23T11:04:46;17.60;99.90
25280;DHT22;13225;47.804;12.116;2023-04-23T11:07:13;17.60;99.90
25280;DHT22;13225;47.804;12.116;2023-04-23T11:09:46;17.40;99.90
25280;DHT22;13225;47.804;12.116;2023-04-23T11:12:29;17.60;99.90
25280;DHT22;13225;47.804;12.116;2023-04-23T11:14:56;17.40;99.90
25280;DHT22;13225;47.804;12.116;2023-04-23T11:22:45;17.60;99.90
25280;DHT22;13225;47.804;12.116;2023-04-23T11:27:46;17.90;99.90
25280;DHT22;13225;47.804;12.116;2023-04-23T11:30:14;17.90;99.90
25280;DHT22;13225;47.804;12.116;2023-04-23T11:32:40;18.00;99.90
25280;DHT22;13225;47.804;12.116;2023-04-23T11:35:08;17.70;99.90
25280;DHT22;13225;47.804;12.116;2023-04-23T11:37:39;17.70;99.90
25280;DHT22;13225;47.804;12.116;2023-04-23T11:40:09;17.50;99.90
25280;DHT22;13225;47.804;12.116;2023-04-23T11:42:46;17.90;99.90
25280;DHT22;13225;47.804;12.116;2023-04-23T11:45:18;18.30;99.90
25280;DHT22;13225;47.804;12.116;2023-04-23T11:47:46;18.80;99.90
25280;DHT22;13225;47.804;12.116;2023-04-23T11:50:24;18.80;99.90
25280;DHT22;13225;47.804;12.116;2023-04-23T11:52:50;18.50;99.90
25280;DHT22;13225;47.804;12.116;2023-04-23T11:55:17;19.00;99.90
25280;DHT22;13225;47.804;12.116;2023-04-23T11:57:45;19.00;99.90
25280;DHT22;13225;47.804;12.116;2023-04-23T12:02:55;18.80;99.90
25280;DHT22;13225;47.804;12.116;2023-04-23T12:05:42;18.90;99.90
25280;DHT22;13225;47.804;12.116;2023-04-23T12:08:16;19.90;99.90
25280;DHT22;13225;47.804;12.116;2023-04-23T12:10:45;20.60;99.90
25280;DHT22;13225;47.804;12.116;2023-04-23T12:13:27;20.90;99.90
25280;DHT22;13225;47.804;12.116;2023-04-23T12:15:55;20.00;99.90
25280;DHT22;13225;47.804;12.116;2023-04-23T12:18:38;19.60;99.90
25280;DHT22;13225;47.804;12.116;2023-04-23T12:21:09;19.90;99.90
25280;DHT22;13225;47.804;12.116;2023-04-23T12:23:36;20.80;99.90
25280;DHT22;13225;47.804;12.116;2023-04-23T12:26:03;21.50;99.90
25280;DHT22;13225;47.804;12.116;2023-04-23T12:28:29;21.70;99.90
25280;DHT22;13225;47.804;12.116;2023-04-23T12:31:00;22.20;99.90
25280;DHT22;13225;47.804;12.116;2023-04-23T12:33:29;22.40;99.90
25280;DHT22;13225;47.804;12.116;2023-04-23T12:35:55;22.50;99.90
25280;DHT22;13225;47.804;12.116;2023-04-23T12:38:26;22.00;99.90
25280;DHT22;13225;47.804;12.116;2023-04-23T12:40:53;21.90;99.90
25280;DHT22;13225;47.804;12.116;2023-04-23T12:43:19;21.70;99.90
25280;DHT22;13225;47.804;12.116;2023-04-23T12:45:45;21.30;99.90
25280;DHT22;13225;47.804;12.116;2023-04-23T12:48:11;20.60;99.90
25280;DHT22;13225;47.804;12.116;2023-04-23T12:50:37;20.30;99.90
25280;DHT22;13225;47.804;12.116;2023-04-23T12:53:03;20.80;99.90
25280;DHT22;13225;47.804;12.116;2023-04-23T12:55:29;21.10;99.90
25280;DHT22;13225;47.804;12.116;2023-04-23T12:57:54;21.20;99.90
25280;DHT22;13225;47.804;12.116;2023-04-23T13:00:21;20.60;99.90
25280;DHT22;13225;47.804;12.116;2023-04-23T13:02:47;20.00;99.90
25280;DHT22;13225;47.804;12.116;2023-04-23T13:05:13;19.80;99.90
25280;DHT22;13225;47.804;12.116;2023-04-23T13:07:38;19.70;99.90
25280;DHT22;13225;47.804;12.116;2023-04-23T13:10:04;20.00;99.90
25280;DHT22;13225;47.804;12.116;2023-04-23T13:12:30;20.00;99.90
25280;DHT22;13225;47.804;12.116;2023-04-23T13:14:56;19.60;99.90
25280;DHT22;13225;47.804;12.116;2023-04-23T13:17:22;19.20;99.90
25280;DHT22;13225;47.804;12.116;2023-04-23T13:19:51;19.20;99.90
25280;DHT22;13225;47.804;12.116;2023-04-23T13:22:16;20.10;99.90
25280;DHT22;13225;47.804;12.116;2023-04-23T13:24:42;20.80;99.90
25280;DHT22;13225;47.804;12.116;2023-04-23T13:27:08;21.50;99.90
25280;DHT22;13225;47.804;12.116;2023-04-23T13:29:35;22.40;99.90
25280;DHT22;13225;47.804;12.116;2023-04-23T13:32:01;22.60;99.90
25280;DHT22;13225;47.804;12.116;2023-04-23T13:34:26;21.90;99.90
25280;DHT22;13225;47.804;12.116;2023-04-23T13:36:52;21.40;99.90
25280;DHT22;13225;47.804;12.116;2023-04-23T13:39:18;20.90;99.90
25280;DHT22;13225;47.804;12.116;2023-04-23T13:41:44;20.80;99.90
25280;DHT22;13225;47.804;12.116;2023-04-23T13:44:10;21.20;99.90
25280;DHT22;13225;47.804;12.116;2023-04-23T13:46:38;22.00;99.90
25280;DHT22;13225;47.804;12.116;2023-04-23T13:49:04;21.40;99.90
25280;DHT22;13225;47.804;12.116;2023-04-23T13:51:30;20.60;99.90
25280;DHT22;13225;47.804;12.116;2023-04-23T13:53:56;20.30;99.90
25280;DHT22;13225;47.804;12.116;2023-04-23T13:56:22;20.00;99.90
25280;DHT22;13225;47.804;12.116;2023-04-23T13:58:49;20.40;99.90
25280;DHT22;13225;47.804;12.116;2023-04-23T14:01:17;21.40;99.90
25280;DHT22;13225;47.804;12.116;2023-04-23T14:03:43;22.50;99.90
25280;DHT22;13225;47.804;12.116;2023-04-23T14:06:09;22.80;99.90
25280;DHT22;13225;47.804;12.116;2023-04-23T14:08:34;22.10;99.90
25280;DHT22;13225;47.804;12.116;2023-04-23T14:11:01;21.30;99.90
25280;DHT22;13225;47.804;12.116;2023-04-23T14:13:27;20.80;99.90
25280;DHT22;13225;47.804;12.116;2023-04-23T14:15:54;20.60;99.90
25280;DHT22;13225;47.804;12.116;2023-04-23T14:18:19;20.60;99.90
25280;DHT22;13225;47.804;12.116;2023-04-23T14:20:45;20.50;99.90
25280;DHT22;13225;47.804;12.116;2023-04-23T14:25:56;20.10;99.90
25280;DHT22;13225;47.804;12.116;2023-04-23T14:28:33;20.00;99.90
25280;DHT22;13225;47.804;12.116;2023-04-23T14:31:00;19.90;99.90
25280;DHT22;13225;47.804;12.116;2023-04-23T14:33:25;19.80;99.90
25280;DHT22;13225;47.804;12.116;2023-04-23T14:35:51;19.70;99.90
25280;DHT22;13225;47.804;12.116;2023-04-23T14:38:17;19.60;99.90
25280;DHT22;13225;47.804;12.116;2023-04-23T14:40:42;19.70;99.90
25280;DHT22;13225;47.804;12.116;2023-04-23T14:43:08;19.70;99.90
25280;DHT22;13225;47.804;12.116;2023-04-23T14:45:34;19.50;99.90
25280;DHT22;13225;47.804;12.116;2023-04-23T14:48:00;19.30;99.90
25280;DHT22;13225;47.804;12.116;2023-04-23T14:50:26;19.00;99.90
25280;DHT22;13225;47.804;12.116;2023-04-23T14:52:53;19.00;99.90
25280;DHT22;13225;47.804;12.116;2023-04-23T14:55:22;18.90;99.90
25280;DHT22;13225;47.804;12.116;2023-04-23T14:57:48;18.80;99.90
25280;DHT22;13225;47.804;12.116;2023-04-23T15:00:14;18.80;99.90
25280;DHT22;13225;47.804;12.116;2023-04-23T15:02:41;18.80;99.90
25280;DHT22;13225;47.804;12.116;2023-04-23T15:05:10;18.70;99.90
25280;DHT22;13225;47.804;12.116;2023-04-23T15:07:36;18.60;99.90
25280;DHT22;13225;47.804;12.116;2023-04-23T15:10:03;18.60;99.90
25280;DHT22;13225;47.804;12.116;2023-04-23T15:12:47;18.50;99.90
25280;DHT22;13225;47.804;12.116;2023-04-23T15:15:26;18.50;99.90
25280;DHT22;13225;47.804;12.116;2023-04-23T15:17:52;18.40;99.90
25280;DHT22;13225;47.804;12.116;2023-04-23T15:20:18;18.30;99.90
25280;DHT22;13225;47.804;12.116;2023-04-23T15:22:44;18.30;99.90
25280;DHT22;13225;47.804;12.116;2023-04-23T15:25:12;18.20;99.90
25280;DHT22;13225;47.804;12.116;2023-04-23T15:27:37;18.30;99.90
25280;DHT22;13225;47.804;12.116;2023-04-23T15:30:04;18.20;99.90